Time;durP1;ratioP1;P1;durP2;ratioP2;P2;SDS_P1;SDS_P2;PMS_P1;PMS_P2;Temp;Humidity;BMP_temperature;BMP_pressure;BME280_temperature;BME280_humidity;BME280_pressure;Samples;Min_cycle;Max_cycle;Signal;HPM_P1;HPM_P2
2022/07/05 00:01:49;;;;;;;1.17;0.85;;;13.60;99.90;;;;;;5017683;28;20045;-73
2022/07/05 00:04:15;;;;;;;2.13;1.20;;;13.50;99.90;;;;;;5017410;28;20041;-73
2022/07/05 00:07:17;;;;;;;2.08;1.15;;;13.50;99.90;;;;;;5000986;28;20488;-73
2022/07/05 00:09:26;;;;;;;0.82;0.82;;;13.40;99.90;;;;;;5003456;28;20065;-73
2022/07/05 00:11:52;;;;;;;1.60;1.02;;;13.30;99.90;;;;;;5017174;28;20049;-73
2022/07/05 00:14:17;;;;;;;1.88;1.00;;;14.10;99.90;;;;;;5000504;28;20507;-73
2022/07/05 00:16:43;;;;;;;1.00;0.90;;;13.30;99.90;;;;;;5017185;28;20038;-73
2022/07/05 00:19:08;;;;;;;1.30;1.00;;;13.60;99.90;;;;;;5001114;28;20052;-73
2022/07/05 00:21:34;;;;;;;1.27;0.90;;;13.20;99.90;;;;;;5001030;28;20041;-73
2022/07/05 00:24:00;;;;;;;1.83;1.13;;;13.20;99.90;;;;;;5017305;28;20041;-73
2022/07/05 00:26:25;;;;;;;1.85;0.95;;;13.10;99.90;;;;;;5000889;28;20049;-73
2022/07/05 00:28:51;;;;;;;1.75;1.08;;;13.10;99.90;;;;;;5016935;28;20137;-73
2022/07/05 00:31:17;;;;;;;1.65;0.93;;;13.10;99.90;;;;;;5000606;28;20550;-73
2022/07/05 00:33:42;;;;;;;1.55;1.02;;;13.00;99.90;;;;;;5017001;28;20044;-73
2022/07/05 00:36:08;;;;;;;1.80;1.00;;;13.00;99.90;;;;;;5017091;28;20111;-73
2022/07/05 00:38:34;;;;;;;2.03;1.20;;;13.00;99.90;;;;;;5016930;28;20045;-73
2022/07/05 00:40:59;;;;;;;1.45;0.95;;;12.90;99.90;;;;;;5016684;28;20044;-73
2022/07/05 00:43:25;;;;;;;1.60;0.85;;;12.80;99.90;;;;;;5000259;28;20049;-73
2022/07/05 00:45:50;;;;;;;2.05;0.95;;;13.00;99.90;;;;;;5016637;28;20048;-73
2022/07/05 00:48:16;;;;;;;1.73;1.00;;;12.80;99.90;;;;;;5000282;28;20184;-73
2022/07/05 00:50:43;;;;;;;1.42;0.90;;;12.70;99.90;;;;;;4984121;28;20408;-73
2022/07/05 00:53:08;;;;;;;1.63;0.98;;;12.70;99.90;;;;;;5016399;28;20046;-73
2022/07/05 00:55:34;;;;;;;1.50;1.08;;;12.60;99.90;;;;;;5016307;28;20048;-73
2022/07/05 00:58:00;;;;;;;1.08;0.90;;;12.60;99.90;;;;;;5016307;28;20060;-73
2022/07/05 01:00:26;;;;;;;2.97;1.10;;;12.70;99.90;;;;;;5016278;28;20045;-73
2022/07/05 01:02:52;;;;;;;1.52;0.90;;;12.60;99.90;;;;;;5016453;28;20571;-73
2022/07/05 01:05:17;;;;;;;0.90;0.80;;;12.60;99.90;;;;;;4984121;28;20040;-73
2022/07/05 01:07:43;;;;;;;1.88;1.08;;;12.70;99.90;;;;;;5000085;28;20033;-73
2022/07/05 01:10:10;;;;;;;1.67;1.00;;;12.70;99.90;;;;;;4999602;28;20058;-73
2022/07/05 01:12:39;;;;;;;2.75;1.10;;;12.70;99.90;;;;;;5016061;28;20057;-73
2022/07/05 01:15:05;;;;;;;1.40;0.88;;;12.70;99.90;;;;;;5015934;28;20049;-73
2022/07/05 01:17:31;;;;;;;1.05;0.90;;;12.70;99.90;;;;;;5015970;28;20044;-73
2022/07/05 01:19:56;;;;;;;3.33;0.90;;;12.70;99.90;;;;;;4999636;28;20045;-73
2022/07/05 01:22:26;;;;;;;1.63;1.17;;;12.60;99.90;;;;;;4999622;28;20120;-73
2022/07/05 01:24:52;;;;;;;1.05;0.80;;;12.60;99.90;;;;;;5015807;28;20053;-73
2022/07/05 01:27:19;;;;;;;1.45;1.20;;;12.60;99.90;;;;;;5015103;28;20056;-73
2022/07/05 01:29:45;;;;;;;0.70;0.70;;;12.60;99.90;;;;;;4999434;28;20041;-73
2022/07/05 01:32:12;;;;;;;4.15;1.33;;;12.60;99.90;;;;;;4999442;28;20041;-73
2022/07/05 01:34:39;;;;;;;1.10;0.95;;;12.60;99.90;;;;;;5033353;28;20041;-73
2022/07/05 01:37:05;;;;;;;3.25;1.20;;;12.70;99.90;;;;;;5015915;28;20049;-73
2022/07/05 01:39:32;;;;;;;1.40;1.00;;;12.60;99.90;;;;;;5015603;28;20041;-73
2022/07/05 01:41:58;;;;;;;1.38;0.98;;;13.10;99.90;;;;;;4999434;28;20044;-73
2022/07/05 01:44:24;;;;;;;1.80;0.90;;;12.60;99.90;;;;;;4999324;28;20045;-73
2022/07/05 01:46:57;;;;;;;1.63;1.10;;;12.60;99.90;;;;;;4983231;28;20492;-73
2022/07/05 01:49:24;;;;;;;1.00;0.90;;;12.60;99.90;;;;;;5015802;28;20128;-73
2022/07/05 01:51:58;;;;;;;1.15;0.93;;;12.60;99.90;;;;;;4983136;28;20049;-73
2022/07/05 01:54:24;;;;;;;1.35;1.08;;;12.50;99.90;;;;;;5015621;28;20041;-73
2022/07/05 01:56:50;;;;;;;1.80;1.10;;;12.60;99.90;;;;;;4999197;28;20064;-73
2022/07/05 01:59:15;;;;;;;1.58;1.08;;;12.50;99.90;;;;;;4982826;28;20041;-73
2022/07/05 02:01:41;;;;;;;2.60;1.23;;;12.50;99.90;;;;;;4999240;28;20080;-73
2022/07/05 02:04:10;;;;;;;1.63;1.20;;;12.50;99.90;;;;;;4999004;28;20034;-73
2022/07/05 02:06:36;;;;;;;1.63;1.10;;;12.50;99.90;;;;;;5015257;28;20045;-73
2022/07/05 02:09:04;;;;;;;1.75;1.17;;;12.50;99.90;;;;;;4999161;28;20037;-73
2022/07/05 02:11:30;;;;;;;3.10;1.80;;;12.50;99.90;;;;;;4983003;28;20046;-73
2022/07/05 02:13:57;;;;;;;3.20;1.40;;;12.50;99.90;;;;;;4998819;28;20107;-73
2022/07/05 02:16:25;;;;;;;2.03;1.38;;;13.10;99.90;;;;;;5015058;28;20050;-73
2022/07/05 02:18:50;;;;;;;2.03;1.40;;;12.40;99.90;;;;;;5015148;28;20037;-73
2022/07/05 02:21:16;;;;;;;3.78;1.73;;;12.40;99.90;;;;;;4982925;28;20452;-73
2022/07/05 02:23:42;;;;;;;2.75;1.40;;;12.50;99.90;;;;;;4998645;28;20100;-73
2022/07/05 02:26:07;;;;;;;2.22;1.35;;;12.40;99.90;;;;;;4998726;28;20047;-73
2022/07/05 02:28:33;;;;;;;3.40;1.63;;;12.40;99.90;;;;;;5015170;28;20092;-73
2022/07/05 02:30:59;;;;;;;1.42;1.10;;;12.40;99.90;;;;;;5015002;28;20049;-73
2022/07/05 02:33:24;;;;;;;2.25;1.30;;;12.40;99.90;;;;;;5015105;28;20453;-73
2022/07/05 02:35:50;;;;;;;2.08;1.52;;;12.40;99.90;;;;;;4982369;28;20400;-73
2022/07/05 02:38:16;;;;;;;2.65;1.50;;;12.30;99.90;;;;;;5016943;28;20053;-73
2022/07/05 02:40:41;;;;;;;3.28;1.73;;;12.30;99.90;;;;;;5018966;28;20128;-73
2022/07/05 02:43:07;;;;;;;1.42;1.20;;;12.30;99.90;;;;;;5019167;28;20040;-73
2022/07/05 02:45:33;;;;;;;3.28;1.83;;;12.30;99.90;;;;;;5018922;28;20049;-73
2022/07/05 02:47:58;;;;;;;1.35;1.23;;;12.40;99.90;;;;;;5002733;28;20504;-73
2022/07/05 02:50:24;;;;;;;2.40;1.80;;;12.40;99.90;;;;;;5002480;28;20045;-73
2022/07/05 02:52:50;;;;;;;2.80;1.70;;;12.30;99.90;;;;;;4986113;28;20123;-74
2022/07/05 02:55:15;;;;;;;5.05;1.83;;;12.40;99.90;;;;;;5018558;28;20497;-73
2022/07/05 02:57:41;;;;;;;4.45;1.80;;;12.40;99.90;;;;;;5002346;28;20119;-73
2022/07/05 03:00:07;;;;;;;2.13;1.60;;;12.40;99.90;;;;;;5002283;28;20037;-73
2022/07/05 03:02:33;;;;;;;2.47;1.60;;;12.40;99.90;;;;;;5002265;28;20037;-73
2022/07/05 03:04:59;;;;;;;2.35;1.50;;;12.40;99.90;;;;;;5018513;28;20388;-73
2022/07/05 03:07:24;;;;;;;1.80;1.50;;;12.40;99.90;;;;;;5018481;28;20045;-73
2022/07/05 03:09:50;;;;;;;1.80;1.10;;;12.40;99.90;;;;;;5001851;28;20050;-73
2022/07/05 03:12:16;;;;;;;2.92;1.75;;;12.80;99.90;;;;;;5002033;28;20439;-73
2022/07/05 03:14:41;;;;;;;2.83;1.67;;;12.40;99.90;;;;;;5001838;28;20053;-73
2022/07/05 03:17:07;;;;;;;3.80;1.63;;;12.40;99.90;;;;;;5002019;28;20038;-73
2022/07/05 03:19:33;;;;;;;4.05;1.85;;;12.40;99.90;;;;;;5018180;28;20034;-73
2022/07/05 03:21:58;;;;;;;3.20;1.80;;;12.40;99.90;;;;;;4985857;28;20037;-73
2022/07/05 03:24:24;;;;;;;6.93;2.10;;;12.40;99.90;;;;;;5001879;28;20179;-73
2022/07/05 03:26:50;;;;;;;2.45;1.80;;;12.40;99.90;;;;;;5018041;28;20048;-73
2022/07/05 03:29:16;;;;;;;3.95;1.80;;;11.90;99.90;;;;;;5002051;28;20477;-73
2022/07/05 03:31:41;;;;;;;4.38;1.90;;;12.30;99.90;;;;;;5017964;28;20063;-73
2022/07/05 03:34:07;;;;;;;2.47;1.52;;;12.30;99.90;;;;;;5017844;28;20043;-73
2022/07/05 03:36:33;;;;;;;2.95;1.70;;;12.30;99.90;;;;;;5017820;28;20041;-73
2022/07/05 03:38:58;;;;;;;2.63;1.95;;;12.40;99.90;;;;;;5017848;28;20381;-73
2022/07/05 03:41:24;;;;;;;6.57;1.85;;;12.40;99.90;;;;;;5018166;28;20401;-73
2022/07/05 03:43:50;;;;;;;3.03;2.20;;;12.40;99.90;;;;;;5001767;28;20091;-73
2022/07/05 03:46:15;;;;;;;4.55;2.38;;;12.30;99.90;;;;;;5001465;28;20060;-73
2022/07/05 03:48:41;;;;;;;5.13;1.83;;;12.50;99.90;;;;;;4985202;28;20056;-73
2022/07/05 03:51:06;;;;;;;3.83;2.20;;;12.40;99.90;;;;;;5000736;28;20037;-73
2022/07/05 03:53:32;;;;;;;4.28;2.20;;;12.40;99.90;;;;;;5017608;28;20484;-73
2022/07/05 03:55:58;;;;;;;4.35;2.00;;;12.40;99.90;;;;;;5017461;28;20096;-73
2022/07/05 03:58:23;;;;;;;2.88;2.00;;;12.50;99.90;;;;;;5017562;28;20094;-73
2022/07/05 04:00:49;;;;;;;2.70;1.80;;;12.80;99.90;;;;;;5017415;28;20512;-73
2022/07/05 04:03:15;;;;;;;4.03;2.00;;;12.50;99.90;;;;;;5017684;28;20046;-73
2022/07/05 04:05:41;;;;;;;2.65;1.80;;;12.50;99.90;;;;;;5017420;28;20049;-73
2022/07/05 04:08:07;;;;;;;2.97;2.03;;;12.90;99.90;;;;;;5017586;28;20052;-72
2022/07/05 04:10:32;;;;;;;3.58;1.95;;;12.50;99.90;;;;;;5017021;28;20061;-73
2022/07/05 04:12:58;;;;;;;6.60;2.25;;;13.60;99.90;;;;;;5017193;28;20084;-73
2022/07/05 04:15:24;;;;;;;3.97;2.08;;;12.60;99.90;;;;;;5017144;28;20049;-73
2022/07/05 04:17:52;;;;;;;3.28;2.40;;;12.60;99.90;;;;;;5001050;28;20103;-73
2022/07/05 04:20:18;;;;;;;4.22;2.50;;;12.70;99.90;;;;;;5017079;28;20461;-73
2022/07/05 04:22:44;;;;;;;2.25;1.70;;;12.70;99.90;;;;;;5016990;28;20121;-73
2022/07/05 04:25:16;;;;;;;3.30;2.08;;;12.80;99.90;;;;;;5000890;28;20405;-73
2022/07/05 04:27:52;;;;;;;4.53;2.28;;;12.80;99.90;;;;;;5017128;28;20049;-73
2022/07/05 04:30:20;;;;;;;2.63;1.65;;;12.80;99.90;;;;;;5016852;28;20041;-73
2022/07/05 04:32:46;;;;;;;4.05;2.00;;;12.90;99.90;;;;;;5016808;28;20056;-73
2022/07/05 04:35:12;;;;;;;5.45;2.42;;;13.00;99.90;;;;;;5000555;28;20041;-73
2022/07/05 04:37:39;;;;;;;2.83;1.95;;;13.00;99.90;;;;;;5017025;28;20069;-73
2022/07/05 04:40:06;;;;;;;2.97;2.20;;;13.10;99.90;;;;;;5016782;28;20046;-73
2022/07/05 04:42:32;;;;;;;4.82;2.17;;;13.20;99.90;;;;;;5016831;28;20042;-73
2022/07/05 04:44:58;;;;;;;3.45;2.33;;;13.20;99.90;;;;;;5016520;28;20057;-73
2022/07/05 04:47:25;;;;;;;3.35;2.25;;;13.60;99.90;;;;;;5016539;28;20400;-73
2022/07/05 04:49:51;;;;;;;3.38;2.00;;;13.50;99.90;;;;;;5016501;28;20045;-73
2022/07/05 04:52:17;;;;;;;5.35;2.08;;;14.50;99.90;;;;;;5000108;28;20045;-73
2022/07/05 04:54:43;;;;;;;4.13;1.60;;;14.10;99.90;;;;;;5016332;28;20041;-73
2022/07/05 04:57:08;;;;;;;3.67;1.70;;;13.80;99.90;;;;;;5000101;28;20068;-73
2022/07/05 04:59:34;;;;;;;3.40;1.90;;;13.80;99.90;;;;;;5016360;28;20037;-73
2022/07/05 05:02:00;;;;;;;2.45;1.30;;;14.00;99.90;;;;;;5015339;28;20174;-73
2022/07/05 05:04:25;;;;;;;4.45;1.77;;;14.10;99.90;;;;;;5000198;28;20110;-73
2022/07/05 05:06:51;;;;;;;2.90;1.80;;;14.10;99.90;;;;;;5016168;28;20040;-73
2022/07/05 05:09:17;;;;;;;2.80;1.60;;;14.20;99.90;;;;;;5015883;28;20045;-73
2022/07/05 05:11:42;;;;;;;3.03;1.83;;;14.20;99.90;;;;;;5016074;28;20404;-73
2022/07/05 05:14:08;;;;;;;3.00;1.80;;;14.30;99.90;;;;;;5016178;28;20040;-73
2022/07/05 05:16:34;;;;;;;3.35;1.77;;;16.30;99.90;;;;;;5016040;28;20547;-73
2022/07/05 05:18:59;;;;;;;2.45;1.63;;;14.30;99.90;;;;;;4999661;28;20041;-73
2022/07/05 05:21:25;;;;;;;3.92;1.90;;;14.40;99.90;;;;;;5016250;28;20206;-73
2022/07/05 05:23:50;;;;;;;2.13;1.80;;;14.40;99.90;;;;;;4999893;28;20132;-73
2022/07/05 05:26:16;;;;;;;2.45;1.58;;;14.70;99.90;;;;;;5016110;28;20048;-73
2022/07/05 05:28:42;;;;;;;2.78;1.60;;;14.60;99.90;;;;;;5015855;28;20044;-73
2022/07/05 05:31:07;;;;;;;2.40;1.67;;;14.70;99.90;;;;;;5016014;28;20100;-73
2022/07/05 05:33:33;;;;;;;3.33;1.85;;;14.70;99.90;;;;;;5016029;28;20085;-73
2022/07/05 05:36:00;;;;;;;1.55;1.33;;;14.80;99.90;;;;;;4999357;28;20049;-73
2022/07/05 05:38:26;;;;;;;1.90;1.48;;;14.90;99.90;;;;;;5015982;28;20508;-73
2022/07/05 05:40:52;;;;;;;2.22;1.48;;;15.00;99.90;;;;;;4999256;28;20033;-79
2022/07/05 05:43:17;;;;;;;3.08;1.52;;;15.40;99.90;;;;;;4999300;28;20500;-72
2022/07/05 05:45:43;;;;;;;4.00;1.83;;;15.20;99.90;;;;;;5015532;28;20048;-73
2022/07/05 05:48:09;;;;;;;3.00;1.67;;;15.30;99.90;;;;;;4999172;28;20052;-69
2022/07/05 05:50:38;;;;;;;1.77;1.13;;;15.40;99.90;;;;;;4999178;28;20045;-71
2022/07/05 05:53:04;;;;;;;3.50;1.60;;;15.50;99.90;;;;;;5015661;28;20045;-71
2022/07/05 05:55:31;;;;;;;2.13;1.60;;;15.70;99.90;;;;;;5015502;28;20179;-70
2022/07/05 05:58:09;;;;;;;2.38;1.50;;;15.80;99.90;;;;;;4999190;28;20195;-73
2022/07/05 06:00:35;;;;;;;2.92;1.65;;;16.00;99.90;;;;;;5015574;28;20452;-70
2022/07/05 06:03:01;;;;;;;2.65;1.48;;;16.10;99.90;;;;;;5016181;28;20042;-71
2022/07/05 06:05:26;;;;;;;2.03;1.38;;;16.20;99.90;;;;;;5015393;28;20076;-72
2022/07/05 06:07:55;;;;;;;2.20;1.33;;;16.30;99.90;;;;;;4999077;28;20037;-72
2022/07/05 06:10:24;;;;;;;2.05;1.40;;;16.40;99.90;;;;;;4998895;28;20057;-71
2022/07/05 06:12:51;;;;;;;2.15;1.23;;;16.50;99.90;;;;;;5015074;28;20382;-76
2022/07/05 06:15:18;;;;;;;2.13;1.13;;;16.60;99.90;;;;;;5015176;28;20120;-72
2022/07/05 06:17:44;;;;;;;1.60;1.13;;;16.70;99.90;;;;;;5015035;28;20098;-72
2022/07/05 06:20:12;;;;;;;2.85;1.42;;;16.80;99.90;;;;;;5015092;28;20046;-73
2022/07/05 06:22:38;;;;;;;0.98;0.85;;;16.90;99.90;;;;;;5015302;28;20485;-72
2022/07/05 06:25:05;;;;;;;1.75;0.85;;;17.00;99.90;;;;;;5015090;28;20136;-72
2022/07/05 06:27:31;;;;;;;2.35;1.15;;;17.10;99.90;;;;;;5015272;28;20052;-72
2022/07/05 06:29:57;;;;;;;1.90;1.10;;;17.20;99.90;;;;;;4998621;28;20042;-72
2022/07/05 06:32:24;;;;;;;1.58;0.95;;;17.20;99.90;;;;;;4998583;28;20125;-72
2022/07/05 06:34:49;;;;;;;2.88;1.00;;;17.30;99.90;;;;;;5014870;28;20052;-72
2022/07/05 06:37:15;;;;;;;1.38;1.10;;;17.40;99.90;;;;;;5015247;28;20041;-72
2022/07/05 06:39:41;;;;;;;2.58;1.50;;;17.40;99.90;;;;;;5014876;28;20052;-72
2022/07/05 06:42:06;;;;;;;1.50;1.00;;;17.50;99.90;;;;;;4998623;28;20124;-72
2022/07/05 06:44:33;;;;;;;1.48;1.15;;;17.60;99.90;;;;;;5015023;28;20048;-72
2022/07/05 06:46:59;;;;;;;4.80;1.17;;;17.70;99.90;;;;;;4998606;28;20045;-73
2022/07/05 06:49:24;;;;;;;2.25;1.02;;;17.70;99.90;;;;;;5015139;28;20038;-72
2022/07/05 06:51:50;;;;;;;1.80;1.08;;;17.70;99.90;;;;;;5014810;28;20046;-72
2022/07/05 06:54:15;;;;;;;0.95;0.75;;;17.90;99.90;;;;;;4998543;28;20041;-72
2022/07/05 06:56:41;;;;;;;2.55;1.08;;;17.90;99.90;;;;;;4982301;28;20084;-72
2022/07/05 06:59:07;;;;;;;1.77;1.00;;;17.90;99.90;;;;;;4998460;28;20167;-72
2022/07/05 07:01:32;;;;;;;1.10;0.77;;;18.30;99.90;;;;;;4998427;28;20042;-72
2022/07/05 07:03:58;;;;;;;1.38;0.80;;;18.10;99.90;;;;;;5014832;28;20397;-73
2022/07/05 07:06:24;;;;;;;1.10;0.70;;;18.30;99.90;;;;;;4998315;28;20037;-73
2022/07/05 07:11:34;;;;;;;1.83;1.08;;;18.30;99.90;;;;;;5014450;28;20140;-73
2022/07/05 07:14:00;;;;;;;0.88;0.70;;;18.50;99.90;;;;;;5014653;28;20171;-73
2022/07/05 07:16:26;;;;;;;0.50;0.50;;;18.60;99.90;;;;;;5014415;28;20045;-73
2022/07/05 07:18:52;;;;;;;1.05;0.70;;;18.70;99.90;;;;;;5014603;28;20041;-72
2022/07/05 07:21:17;;;;;;;0.45;0.45;;;18.80;99.90;;;;;;5014698;28;20192;-72
2022/07/05 07:23:43;;;;;;;0.40;0.40;;;19.00;99.90;;;;;;4998399;28;20041;-72
2022/07/05 07:26:09;;;;;;;0.55;0.40;;;18.80;99.90;;;;;;5017718;28;20050;-72
2022/07/05 07:28:34;;;;;;;0.55;0.40;;;18.80;99.90;;;;;;4985538;28;20041;-72
2022/07/05 07:31:00;;;;;;;0.45;0.43;;;18.80;99.90;;;;;;5018068;28;20041;-73
2022/07/05 07:33:26;;;;;;;0.30;0.30;;;19.00;99.90;;;;;;5001686;28;20045;-72
2022/07/05 07:35:51;;;;;;;0.63;0.40;;;19.10;99.90;;;;;;4985322;28;20057;-73
2022/07/05 07:38:17;;;;;;;0.55;0.50;;;19.20;99.90;;;;;;5001547;28;20041;-72
2022/07/05 07:40:43;;;;;;;1.00;0.40;;;19.40;99.90;;;;;;5001825;28;20087;-73
2022/07/05 07:43:08;;;;;;;0.80;0.40;;;19.50;99.90;;;;;;5017789;28;20076;-73
2022/07/05 07:45:34;;;;;;;2.67;0.63;;;19.50;99.90;;;;;;4985203;28;20045;-73
2022/07/05 07:48:00;;;;;;;0.30;0.30;;;19.60;99.90;;;;;;5017688;28;20038;-72
2022/07/05 07:50:25;;;;;;;0.55;0.40;;;19.70;99.90;;;;;;5001605;28;20119;-73
2022/07/05 07:52:51;;;;;;;0.30;0.30;;;19.60;99.90;;;;;;5001586;28;20048;-73
2022/07/05 07:55:17;;;;;;;0.30;0.30;;;19.70;99.90;;;;;;4985021;28;20041;-73
2022/07/05 07:57:42;;;;;;;4.20;0.70;;;20.00;99.90;;;;;;4985263;28;20481;-73
2022/07/05 08:00:08;;;;;;;1.40;0.47;;;19.90;99.90;;;;;;5001346;28;20088;-71
2022/07/05 08:02:34;;;;;;;1.05;0.40;;;19.60;99.90;;;;;;5017492;28;20037;-73
2022/07/05 08:05:00;;;;;;;0.43;0.40;;;19.40;99.90;;;;;;4984949;28;20068;-72
2022/07/05 08:07:26;;;;;;;0.50;0.50;;;19.10;99.90;;;;;;4984819;28;20047;-73
2022/07/05 08:09:52;;;;;;;0.70;0.43;;;19.00;99.90;;;;;;5017164;28;20136;-72
2022/07/05 08:12:19;;;;;;;2.50;0.63;;;19.10;99.90;;;;;;5001022;28;20049;-72
2022/07/05 08:14:45;;;;;;;1.25;0.50;;;19.00;99.90;;;;;;5001166;28;20492;-73
2022/07/05 08:17:12;;;;;;;0.25;0.25;;;19.00;99.90;;;;;;5017195;28;20047;-72
2022/07/05 08:22:23;;;;;;;1.73;0.55;;;19.00;99.90;;;;;;4989481;28;20041;-72
2022/07/05 08:24:49;;;;;;;3.22;0.57;;;18.90;99.90;;;;;;5000647;28;20072;-72
2022/07/05 08:27:16;;;;;;;0.40;0.38;;;19.00;99.90;;;;;;5017273;28;20049;-72
2022/07/05 08:29:42;;;;;;;0.82;0.32;;;19.00;99.90;;;;;;5017115;28;20511;-73
2022/07/05 08:32:08;;;;;;;0.40;0.30;;;19.00;99.90;;;;;;5016875;28;20041;-72
2022/07/05 08:34:34;;;;;;;1.40;0.55;;;19.00;99.90;;;;;;5000551;28;20068;-72
2022/07/05 08:37:00;;;;;;;1.08;0.52;;;19.00;99.90;;;;;;5000549;28;20563;-73
2022/07/05 08:39:26;;;;;;;2.03;0.60;;;19.00;99.90;;;;;;5000460;28;20045;-73
2022/07/05 08:41:52;;;;;;;0.47;0.40;;;19.00;99.90;;;;;;5000395;28;20125;-72
2022/07/05 08:44:19;;;;;;;1.08;0.65;;;19.00;99.90;;;;;;5016668;28;20552;-71
2022/07/05 08:46:47;;;;;;;0.40;0.40;;;19.00;99.90;;;;;;5016803;28;20512;-71
2022/07/05 08:49:14;;;;;;;1.48;0.60;;;19.10;99.90;;;;;;5016658;28;20420;-71
2022/07/05 08:51:42;;;;;;;0.30;0.30;;;19.30;99.90;;;;;;5016521;28;20037;-71
2022/07/05 08:54:12;;;;;;;0.80;0.50;;;19.60;99.90;;;;;;5016520;28;20045;-74
2022/07/05 08:56:41;;;;;;;0.65;0.50;;;19.80;99.90;;;;;;4983991;28;20056;-76
2022/07/05 08:59:06;;;;;;;0.85;0.50;;;19.60;99.90;;;;;;5016434;28;20034;-76
2022/07/05 09:01:34;;;;;;;1.33;0.40;;;19.60;99.90;;;;;;5016641;28;20060;-78
2022/07/05 09:04:10;;;;;;;0.40;0.40;;;19.40;99.90;;;;;;5000412;28;20099;-78
2022/07/05 09:06:38;;;;;;;0.55;0.43;;;19.50;99.90;;;;;;5000212;28;20041;-78
2022/07/05 09:09:06;;;;;;;0.50;0.40;;;19.80;99.90;;;;;;4984094;28;20041;-79
2022/07/05 09:11:43;;;;;;;0.80;0.52;;;19.90;99.90;;;;;;5016038;28;20058;-78
2022/07/05 09:14:25;;;;;;;0.30;0.30;;;20.10;99.90;;;;;;4999799;28;20055;-77
2022/07/05 09:16:51;;;;;;;1.98;0.60;;;20.20;99.90;;;;;;5016092;28;20052;-77
2022/07/05 09:19:18;;;;;;;1.70;0.40;;;20.40;99.90;;;;;;5016342;28;20072;-77
2022/07/05 09:21:44;;;;;;;3.10;0.70;;;20.30;99.90;;;;;;5016048;28;20099;-77
2022/07/05 09:24:11;;;;;;;0.82;0.40;;;20.10;99.90;;;;;;5016033;28;20073;-78
2022/07/05 09:26:47;;;;;;;0.40;0.40;;;20.00;99.90;;;;;;4999570;28;20042;-78
2022/07/05 09:29:20;;;;;;;0.30;0.30;;;20.20;99.90;;;;;;4983736;28;20124;-78
2022/07/05 09:31:52;;;;;;;1.23;0.50;;;20.10;99.90;;;;;;4999798;28;20049;-78
2022/07/05 09:34:19;;;;;;;1.95;0.32;;;20.00;99.90;;;;;;5015893;28;20050;-78
2022/07/05 09:36:52;;;;;;;0.30;0.30;;;19.90;99.90;;;;;;5015657;28;20045;-76
2022/07/05 09:39:30;;;;;;;1.20;0.40;;;19.70;99.90;;;;;;5015961;28;20077;-77
2022/07/05 09:42:23;;;;;;;0.32;0.32;;;19.60;99.90;;;;;;5015622;28;20045;-78
2022/07/05 09:44:48;;;;;;;1.38;0.50;;;19.40;99.90;;;;;;5015843;28;20073;-76
2022/07/05 09:47:16;;;;;;;1.27;0.40;;;19.30;99.90;;;;;;4998758;28;20072;-76
2022/07/05 09:49:45;;;;;;;0.32;0.32;;;19.30;99.90;;;;;;4999386;28;20040;-77
2022/07/05 09:52:28;;;;;;;0.95;0.40;;;19.20;99.90;;;;;;4999223;28;20037;-77
2022/07/05 09:55:07;;;;;;;0.65;0.45;;;19.30;99.90;;;;;;5015377;28;20115;-77
2022/07/05 09:57:35;;;;;;;0.30;0.30;;;19.20;99.90;;;;;;5015361;28;20033;-77
2022/07/05 10:00:05;;;;;;;1.55;0.55;;;19.10;99.90;;;;;;5015658;28;20615;-76
2022/07/05 10:02:58;;;;;;;1.13;0.47;;;18.90;99.90;;;;;;5015374;28;20060;-76
2022/07/05 10:05:26;;;;;;;0.95;0.60;;;18.90;99.90;;;;;;4999217;28;20495;-76
2022/07/05 10:07:53;;;;;;;0.77;0.45;;;18.90;99.90;;;;;;4999251;28;20091;-76
2022/07/05 10:10:27;;;;;;;0.90;0.30;;;18.80;99.90;;;;;;5012012;28;20054;-77
2022/07/05 10:13:01;;;;;;;0.75;0.55;;;19.10;99.90;;;;;;5012009;28;20132;-77
2022/07/05 10:15:30;;;;;;;2.15;0.38;;;19.20;99.90;;;;;;5012052;28;20080;-77
2022/07/05 10:18:10;;;;;;;0.50;0.43;;;19.30;99.90;;;;;;4995746;28;20050;-77
2022/07/05 10:20:44;;;;;;;0.43;0.40;;;19.30;99.90;;;;;;5011865;28;20045;-70
2022/07/05 10:23:17;;;;;;;0.40;0.40;;;19.40;99.90;;;;;;5011798;28;20034;-71
2022/07/05 10:25:49;;;;;;;0.45;0.45;;;19.50;99.90;;;;;;5011831;28;20041;-72
2022/07/05 10:28:19;;;;;;;0.77;0.60;;;19.50;99.90;;;;;;5012073;28;20508;-71
2022/07/05 10:30:46;;;;;;;;;;;19.60;99.90;;;;;;5012449;28;20508;-75
2022/07/05 10:33:16;;;;;;;0.88;0.60;;;19.60;99.90;;;;;;4995738;28;19917;-71
2022/07/05 10:35:45;;;;;;;0.50;0.50;;;19.60;99.90;;;;;;5011620;28;20042;-71
2022/07/05 10:38:12;;;;;;;1.48;0.70;;;19.50;99.90;;;;;;4995315;28;20034;-72
2022/07/05 10:40:43;;;;;;;0.55;0.50;;;19.40;99.90;;;;;;4995201;28;20124;-70
2022/07/05 10:43:12;;;;;;;1.30;0.55;;;19.50;99.90;;;;;;5011614;28;20042;-71
2022/07/05 10:45:48;;;;;;;0.47;0.47;;;19.40;99.90;;;;;;5011827;28;20085;-70
2022/07/05 10:48:32;;;;;;;0.80;0.65;;;19.60;99.90;;;;;;4995603;28;20054;-70
2022/07/05 10:51:08;;;;;;;0.95;0.60;;;19.70;99.90;;;;;;5011674;28;20050;-70
2022/07/05 10:53:36;;;;;;;2.10;0.93;;;19.70;99.90;;;;;;5011840;28;20077;-70
2022/07/05 10:56:05;;;;;;;0.68;0.68;;;19.70;99.90;;;;;;5011491;28;20129;-71
2022/07/05 10:58:41;;;;;;;0.40;0.40;;;19.70;99.90;;;;;;5011583;28;20074;-70
2022/07/05 11:01:18;;;;;;;1.27;0.60;;;19.50;99.90;;;;;;5015049;28;20393;-71
2022/07/05 11:03:49;;;;;;;0.73;0.43;;;19.40;99.90;;;;;;5015305;28;20460;-71
2022/07/05 11:06:24;;;;;;;0.63;0.45;;;19.50;99.90;;;;;;5015261;28;20046;-71
2022/07/05 11:08:59;;;;;;;0.65;0.50;;;19.40;99.90;;;;;;5015197;28;20045;-71
2022/07/05 11:11:29;;;;;;;1.38;0.50;;;19.50;99.90;;;;;;4998764;28;20061;-71
2022/07/05 11:13:55;;;;;;;2.20;0.55;;;19.80;99.90;;;;;;5015126;28;20050;-71
2022/07/05 11:16:29;;;;;;;2.72;0.57;;;20.00;99.90;;;;;;4998671;28;20073;-71
2022/07/05 11:19:17;;;;;;;0.50;0.50;;;20.00;99.90;;;;;;5015268;28;20505;-72
2022/07/05 11:22:07;;;;;;;1.80;0.60;;;20.00;99.90;;;;;;5014965;28;20053;-70
2022/07/05 11:24:34;;;;;;;1.02;0.45;;;19.90;99.90;;;;;;5014904;28;20037;-70
2022/07/05 11:27:03;;;;;;;3.20;0.47;;;19.80;99.90;;;;;;5014809;28;20046;-69
2022/07/05 11:29:44;;;;;;;0.55;0.55;;;19.60;99.90;;;;;;5014783;28;20124;-70
2022/07/05 11:32:18;;;;;;;0.63;0.40;;;19.50;99.90;;;;;;4998725;28;20037;-70
2022/07/05 11:34:51;;;;;;;1.98;0.50;;;19.50;99.90;;;;;;5016170;28;20069;-70
2022/07/05 11:37:23;;;;;;;0.60;0.60;;;19.70;99.90;;;;;;5014933;28;20568;-71
2022/07/05 11:40:10;;;;;;;0.80;0.70;;;19.80;99.90;;;;;;5015158;28;20389;-72
2022/07/05 11:42:46;;;;;;;0.32;0.32;;;20.00;99.90;;;;;;4998210;28;20041;-70
2022/07/05 11:45:12;;;;;;;3.97;0.50;;;20.20;99.90;;;;;;5014558;28;20445;-71
2022/07/05 11:47:38;;;;;;;0.30;0.30;;;20.20;99.90;;;;;;4998166;28;20049;-71
2022/07/05 11:50:04;;;;;;;2.22;0.47;;;20.30;99.90;;;;;;4998445;28;20046;-71
2022/07/05 11:52:34;;;;;;;1.30;0.60;;;20.40;99.90;;;;;;5014236;28;20129;-75
2022/07/05 11:55:03;;;;;;;1.20;0.45;;;20.50;99.90;;;;;;4997828;28;20413;-74
2022/07/05 11:57:29;;;;;;;0.77;0.32;;;20.60;99.90;;;;;;4997928;28;20044;-71
2022/07/05 11:59:54;;;;;;;0.50;0.50;;;20.60;99.90;;;;;;5014546;28;20549;-71
2022/07/05 12:02:20;;;;;;;3.60;0.85;;;20.50;99.90;;;;;;5014273;28;20034;-71
2022/07/05 12:04:57;;;;;;;0.73;0.73;;;20.90;99.90;;;;;;5014038;28;20084;-71
2022/07/05 12:07:30;;;;;;;0.50;0.40;;;20.60;99.90;;;;;;5014158;28;20042;-71
2022/07/05 12:12:44;;;;;;;0.55;0.43;;;20.40;99.90;;;;;;5013974;28;20107;-71
2022/07/05 12:15:12;;;;;;;0.28;0.28;;;20.20;99.90;;;;;;5013847;28;20088;-73
2022/07/05 12:17:39;;;;;;;0.95;0.40;;;20.10;99.90;;;;;;5013750;28;20383;-72
2022/07/05 12:20:07;;;;;;;0.80;0.50;;;20.10;99.90;;;;;;5013740;28;20042;-72
2022/07/05 12:22:43;;;;;;;0.43;0.32;;;20.20;99.90;;;;;;5013763;28;20092;-71
2022/07/05 12:25:16;;;;;;;0.90;0.50;;;20.40;99.90;;;;;;5014222;28;20382;-71
2022/07/05 12:27:43;;;;;;;1.58;0.50;;;20.60;99.90;;;;;;5013744;28;20050;-69
2022/07/05 12:30:10;;;;;;;0.77;0.57;;;20.80;99.90;;;;;;5013932;28;20128;-72
2022/07/05 12:33:02;;;;;;;2.33;0.38;;;20.90;99.90;;;;;;4997285;28;20089;-73
2022/07/05 12:35:41;;;;;;;0.30;0.30;;;20.70;99.90;;;;;;4997200;28;20045;-73
2022/07/05 12:38:18;;;;;;;3.00;0.95;;;20.60;99.90;;;;;;4997183;28;20042;-72
2022/07/05 12:40:48;;;;;;;0.38;0.38;;;20.50;99.90;;;;;;5013508;28;20084;-72
2022/07/05 12:43:18;;;;;;;0.30;0.30;;;20.60;99.90;;;;;;4997214;28;20041;-73
2022/07/05 12:46:05;;;;;;;0.40;0.40;;;20.70;99.90;;;;;;5013224;28;20088;-73
2022/07/05 12:48:35;;;;;;;1.27;0.43;;;21.10;99.90;;;;;;4997140;28;20448;-73
2022/07/05 12:51:02;;;;;;;0.80;0.57;;;21.00;99.90;;;;;;4997213;28;20565;-72
2022/07/05 12:59:01;;;;;;;0.85;0.43;;;20.70;99.90;;;;;;5013011;28;20048;-73
2022/07/05 13:01:39;;;;;;;1.00;0.50;;;20.50;99.90;;;;;;4996701;28;20045;-72
2022/07/05 13:04:13;;;;;;;2.90;0.40;;;20.60;99.90;;;;;;5013016;28;20045;-73
2022/07/05 13:06:54;;;;;;;0.60;0.22;;;20.60;99.90;;;;;;5013202;28;20127;-73